createdAt,value
2019-06-15T00:01:26.822Z,9.90
2019-06-15T00:03:55.605Z,9.70
2019-06-15T00:06:24.445Z,10.35
2019-06-15T00:08:53.321Z,12.47
2019-06-15T00:11:22.411Z,10.25
2019-06-15T00:13:51.490Z,10.32
2019-06-15T00:16:20.585Z,10.55
2019-06-15T00:18:49.386Z,21.37
2019-06-15T00:21:18.261Z,10.90
2019-06-15T00:23:47.066Z,10.65
2019-06-15T00:26:15.846Z,17.50
2019-06-15T00:28:44.754Z,10.93
2019-06-15T00:31:13.539Z,11.40
2019-06-15T00:33:42.386Z,11.12
2019-06-15T00:36:11.249Z,18.82
2019-06-15T00:38:40.025Z,12.90
2019-06-15T00:41:08.824Z,45.60
2019-06-15T00:43:38.169Z,9.93
2019-06-15T00:46:07.109Z,14.13
2019-06-15T00:48:35.874Z,9.60
2019-06-15T00:51:05.070Z,39.65
2019-06-15T00:53:33.840Z,10.13
2019-06-15T00:56:02.640Z,17.60
2019-06-15T00:58:31.474Z,9.80
2019-06-15T01:01:00.325Z,15.80
2019-06-15T01:03:29.190Z,12.73
2019-06-15T01:05:58.049Z,19.45
2019-06-15T01:08:26.829Z,32.67
2019-06-15T01:10:56.047Z,10.32
2019-06-15T01:13:24.818Z,16.37
2019-06-15T01:15:53.689Z,26.65
2019-06-15T01:18:22.550Z,19.10
2019-06-15T01:20:51.402Z,13.72
2019-06-15T01:23:20.222Z,16.93
2019-06-15T01:25:49.022Z,14.03
2019-06-15T01:28:18.085Z,12.60
2019-06-15T01:30:47.852Z,31.37
2019-06-15T01:33:16.726Z,9.98
2019-06-15T01:35:45.932Z,15.18
2019-06-15T01:38:14.705Z,9.90
2019-06-15T01:40:43.501Z,15.32
2019-06-15T01:43:12.275Z,10.50
2019-06-15T01:45:41.078Z,13.85
2019-06-15T01:48:09.845Z,10.55
2019-06-15T01:50:38.701Z,12.60
2019-06-15T01:53:07.475Z,14.28
2019-06-15T01:55:36.357Z,12.28
2019-06-15T01:58:05.133Z,21.23
2019-06-15T02:00:34.786Z,14.15
2019-06-15T02:03:03.642Z,13.83
2019-06-15T02:05:32.562Z,8.85
2019-06-15T02:08:01.505Z,10.13
2019-06-15T02:10:32.161Z,17.40
2019-06-15T02:13:01.094Z,10.80
2019-06-15T02:15:30.238Z,10.00
2019-06-15T02:18:18.255Z,11.90
2019-06-15T02:20:47.166Z,9.10
2019-06-15T02:23:15.971Z,9.60
2019-06-15T02:25:44.812Z,12.45
2019-06-15T02:28:13.709Z,11.63
2019-06-15T02:30:42.598Z,11.45
2019-06-15T02:33:11.743Z,12.28
2019-06-15T02:35:40.881Z,11.55
2019-06-15T02:38:09.815Z,9.93
2019-06-15T02:40:38.753Z,12.40
2019-06-15T02:43:07.682Z,10.18
2019-06-15T02:45:36.536Z,9.88
2019-06-15T02:48:05.858Z,11.80
2019-06-15T02:50:34.749Z,10.10
2019-06-15T02:53:03.678Z,10.60
2019-06-15T02:55:32.550Z,10.38
2019-06-15T02:58:01.430Z,11.68
2019-06-15T03:00:40.472Z,9.63
2019-06-15T03:03:09.631Z,10.35
2019-06-15T03:05:38.937Z,11.50
2019-06-15T03:08:07.882Z,8.95
2019-06-15T03:10:36.992Z,9.63
2019-06-15T03:13:06.225Z,8.45
2019-06-15T03:15:35.150Z,9.65
2019-06-15T03:18:14.513Z,11.18
2019-06-15T03:20:43.370Z,12.33
2019-06-15T03:23:12.276Z,11.45
2019-06-15T03:25:41.230Z,11.63
2019-06-15T03:28:10.026Z,11.90
2019-06-15T03:30:38.815Z,10.82
2019-06-15T03:33:07.943Z,12.68
2019-06-15T03:35:37.034Z,11.10
2019-06-15T03:38:06.222Z,10.88
2019-06-15T03:40:35.014Z,10.85
2019-06-15T03:43:03.925Z,12.18
2019-06-15T03:45:32.735Z,11.22
2019-06-15T03:48:01.518Z,10.60
2019-06-15T03:50:30.390Z,13.20
2019-06-15T03:52:59.241Z,12.68
2019-06-15T03:55:28.166Z,15.55
2019-06-15T03:57:56.998Z,16.77
2019-06-15T04:00:53.484Z,19.05
2019-06-15T04:03:22.349Z,15.30
2019-06-15T04:05:51.111Z,15.00
2019-06-15T04:08:19.917Z,13.32
2019-06-15T04:10:48.793Z,13.93
2019-06-15T04:13:17.582Z,14.05
2019-06-15T04:15:46.378Z,14.73
2019-06-15T04:18:15.142Z,15.78
2019-06-15T04:20:44.333Z,16.90
2019-06-15T04:23:13.139Z,16.57
2019-06-15T04:25:44.249Z,15.50
2019-06-15T04:28:12.662Z,14.07
2019-06-15T04:30:42.136Z,15.03
2019-06-15T04:33:11.010Z,13.60
2019-06-15T04:35:39.804Z,13.70
2019-06-15T04:38:08.622Z,13.60
2019-06-15T04:40:37.598Z,12.35
2019-06-15T04:43:06.458Z,11.95
2019-06-15T04:45:35.330Z,12.40
2019-06-15T04:48:04.274Z,14.43
2019-06-15T04:50:33.197Z,14.80
2019-06-15T04:53:01.986Z,15.40
2019-06-15T04:55:31.063Z,17.37
2019-06-15T04:57:59.921Z,17.70
2019-06-15T05:00:28.857Z,15.90
2019-06-15T05:02:57.737Z,15.95
2019-06-15T05:05:26.595Z,17.10
2019-06-15T05:07:56.033Z,17.70
2019-06-15T05:10:24.826Z,17.30
2019-06-15T05:12:53.907Z,16.87
2019-06-15T05:15:22.784Z,18.70
2019-06-15T05:17:51.581Z,20.37
2019-06-15T05:20:20.554Z,20.97
2019-06-15T05:22:49.412Z,22.90
2019-06-15T05:25:18.289Z,23.00
2019-06-15T05:27:47.059Z,25.85
2019-06-15T05:30:16.271Z,25.50
2019-06-15T05:32:45.257Z,27.87
2019-06-15T05:35:14.542Z,27.87
2019-06-15T05:37:43.345Z,28.77
2019-06-15T05:40:12.283Z,28.57
2019-06-15T05:42:41.072Z,30.37
2019-06-15T05:45:10.018Z,29.80
2019-06-15T05:47:38.898Z,30.40
2019-06-15T05:50:08.357Z,29.42
2019-06-15T05:52:37.302Z,29.35
2019-06-15T05:55:06.394Z,28.30
2019-06-15T05:57:35.283Z,29.42
2019-06-15T06:00:05.963Z,30.12
2019-06-15T06:02:34.750Z,31.02
2019-06-15T06:05:04.166Z,33.63
2019-06-15T06:07:32.961Z,31.27
2019-06-15T06:10:01.841Z,34.50
2019-06-15T06:12:30.615Z,34.08
2019-06-15T06:14:59.405Z,35.55
2019-06-15T06:17:28.294Z,36.55
2019-06-15T06:19:57.065Z,35.00
2019-06-15T06:22:25.963Z,36.98
2019-06-15T06:24:54.753Z,34.85
2019-06-15T06:27:35.853Z,34.98
2019-06-15T06:29:54.209Z,35.20
2019-06-15T06:32:23.121Z,34.40
2019-06-15T06:34:51.925Z,35.15
2019-06-15T06:37:21.081Z,30.12
2019-06-15T06:39:50.298Z,31.15
2019-06-15T06:42:19.187Z,30.15
2019-06-15T06:44:47.985Z,29.60
2019-06-15T06:47:16.820Z,31.42
2019-06-15T06:49:45.682Z,30.32
2019-06-15T06:52:14.631Z,28.30
2019-06-15T06:54:43.419Z,28.02
2019-06-15T06:57:12.294Z,28.90
2019-06-15T06:59:41.954Z,28.23
2019-06-15T07:02:10.836Z,27.50
2019-06-15T07:04:40.293Z,29.05
2019-06-15T07:07:09.090Z,27.58
2019-06-15T07:09:37.969Z,25.62
2019-06-15T07:12:06.796Z,25.70
2019-06-15T07:14:35.599Z,26.37
2019-06-15T07:17:04.770Z,26.17
2019-06-15T07:19:33.626Z,24.57
2019-06-15T07:22:02.472Z,25.60
2019-06-15T07:24:31.444Z,25.10
2019-06-15T07:27:00.230Z,25.32
2019-06-15T07:29:29.053Z,26.70
2019-06-15T07:31:57.833Z,25.43
2019-06-15T07:34:26.775Z,25.15
2019-06-15T07:36:55.624Z,25.97
2019-06-15T07:39:24.440Z,24.90
2019-06-15T07:41:53.356Z,26.62
2019-06-15T07:44:22.161Z,27.80
2019-06-15T07:46:50.999Z,27.65
2019-06-15T07:49:19.944Z,27.05
2019-06-15T07:51:48.810Z,26.40
2019-06-15T07:54:17.790Z,26.80
2019-06-15T07:56:46.609Z,25.65
2019-06-15T07:59:15.565Z,25.02
2019-06-15T08:01:44.355Z,26.20
2019-06-15T08:04:13.206Z,22.20
2019-06-15T08:06:42.077Z,23.85
2019-06-15T08:09:10.885Z,18.35
2019-06-15T08:11:39.799Z,17.48
2019-06-15T08:14:08.769Z,16.62
2019-06-15T08:16:38.354Z,16.93
2019-06-15T08:19:07.218Z,16.25
2019-06-15T08:21:36.130Z,16.00
2019-06-15T08:24:05.103Z,14.38
2019-06-15T08:26:33.938Z,14.73
2019-06-15T08:29:02.728Z,15.32
2019-06-15T08:31:31.526Z,13.88
2019-06-15T08:34:00.315Z,11.05
2019-06-15T08:36:29.181Z,12.05
2019-06-15T08:38:58.037Z,11.60
2019-06-15T08:41:27.066Z,12.43
2019-06-15T08:43:55.841Z,10.10
2019-06-15T08:46:24.750Z,10.25
2019-06-15T08:48:53.600Z,10.48
2019-06-15T08:51:22.675Z,9.33
2019-06-15T08:53:51.469Z,9.33
2019-06-15T08:56:20.402Z,8.08
2019-06-15T08:58:55.410Z,5.17
2019-06-15T09:01:20.290Z,4.12
2019-06-15T09:03:49.565Z,3.98
2019-06-15T09:06:18.530Z,4.50
2019-06-15T09:08:47.310Z,4.05
2019-06-15T09:11:16.272Z,4.65
2019-06-15T09:13:45.031Z,3.98
2019-06-15T09:16:13.818Z,5.22
2019-06-15T09:18:42.683Z,5.87
2019-06-15T09:21:11.591Z,4.10
2019-06-15T09:23:40.431Z,3.98
2019-06-15T09:26:09.424Z,3.90
2019-06-15T09:28:38.249Z,3.22
2019-06-15T09:31:07.061Z,4.40
2019-06-15T09:33:35.837Z,3.85
2019-06-15T09:36:04.782Z,3.60
2019-06-15T09:38:33.563Z,3.72
2019-06-15T09:41:02.409Z,3.65
2019-06-15T09:43:31.189Z,3.70
2019-06-15T09:45:59.986Z,4.00
2019-06-15T09:48:29.017Z,3.58
2019-06-15T09:50:57.920Z,3.55
2019-06-15T09:53:26.673Z,3.47
2019-06-15T09:55:55.604Z,3.72
2019-06-15T09:58:24.407Z,4.10
2019-06-15T10:00:53.257Z,3.95
2019-06-15T10:03:22.119Z,3.75
2019-06-15T10:06:11.768Z,3.37
2019-06-15T10:08:40.838Z,2.87
2019-06-15T10:11:09.692Z,2.55
2019-06-15T10:13:38.713Z,2.15
2019-06-15T10:16:07.578Z,2.40
2019-06-15T10:18:38.767Z,2.20
2019-06-15T10:21:06.877Z,2.02
2019-06-15T10:23:35.906Z,1.60
2019-06-15T10:26:04.768Z,1.35
2019-06-15T10:28:33.644Z,1.15
2019-06-15T10:31:02.434Z,1.95
2019-06-15T10:33:31.283Z,2.02
2019-06-15T10:36:00.087Z,1.10
2019-06-15T10:38:28.949Z,1.10
2019-06-15T10:40:57.875Z,0.90
2019-06-15T10:43:26.738Z,1.22
2019-06-15T10:45:55.538Z,1.35
2019-06-15T10:48:24.338Z,0.80
2019-06-15T10:50:53.513Z,0.70
2019-06-15T10:53:22.313Z,0.65
2019-06-15T10:55:51.083Z,0.90
2019-06-15T10:58:19.870Z,1.47
2019-06-15T11:00:49.031Z,0.85
2019-06-15T11:03:18.062Z,1.10
2019-06-15T11:05:46.982Z,0.80
2019-06-15T11:08:15.778Z,0.80
2019-06-15T11:11:32.014Z,1.22
2019-06-15T11:14:00.887Z,1.10
2019-06-15T11:16:29.765Z,0.88
2019-06-15T11:18:58.651Z,1.20
2019-06-15T11:21:27.450Z,1.30
2019-06-15T11:23:56.238Z,1.02
2019-06-15T11:26:25.026Z,1.12
2019-06-15T11:28:54.197Z,1.37
2019-06-15T11:31:23.041Z,1.12
2019-06-15T11:33:51.836Z,1.30
2019-06-15T11:36:20.693Z,1.62
2019-06-15T11:38:49.583Z,1.25
2019-06-15T11:41:18.461Z,1.45
2019-06-15T11:43:47.321Z,1.10
2019-06-15T11:46:16.264Z,1.27
2019-06-15T11:48:45.052Z,1.92
2019-06-15T11:51:14.006Z,1.12
2019-06-15T11:53:42.973Z,1.10
2019-06-15T11:56:11.882Z,1.35
2019-06-15T11:58:40.673Z,1.10
2019-06-15T12:01:09.987Z,1.00
2019-06-15T12:03:38.853Z,1.30
2019-06-15T12:06:07.646Z,1.00
2019-06-15T12:08:36.482Z,1.10
2019-06-15T12:11:05.327Z,1.22
2019-06-15T12:13:34.186Z,1.02
2019-06-15T12:16:03.022Z,1.22
2019-06-15T12:18:31.918Z,1.42
2019-06-15T12:21:00.766Z,0.90
2019-06-15T12:23:29.586Z,1.40
2019-06-15T12:25:58.413Z,1.20
2019-06-15T12:28:28.231Z,1.35
2019-06-15T12:30:57.190Z,1.57
2019-06-15T12:33:26.059Z,1.50
2019-06-15T12:35:55.050Z,1.75
2019-06-15T12:38:23.971Z,1.20
2019-06-15T12:40:52.749Z,1.30
2019-06-15T12:43:21.557Z,1.25
2019-06-15T12:45:50.342Z,1.30
2019-06-15T12:48:19.193Z,1.52
2019-06-15T12:50:48.090Z,1.80
2019-06-15T12:53:16.882Z,1.42
2019-06-15T12:55:45.833Z,1.52
2019-06-15T12:58:14.610Z,1.30
2019-06-15T13:00:43.737Z,1.42
2019-06-15T13:03:12.541Z,1.45
2019-06-15T13:05:41.346Z,1.30
2019-06-15T13:08:10.398Z,1.70
2019-06-15T13:10:39.359Z,2.05
2019-06-15T13:13:08.151Z,2.17
2019-06-15T13:15:37.098Z,2.40
2019-06-15T13:18:07.043Z,2.00
2019-06-15T13:20:36.303Z,1.65
2019-06-15T13:23:05.183Z,1.65
2019-06-15T13:25:34.235Z,1.70
2019-06-15T13:28:03.030Z,1.57
2019-06-15T13:30:32.423Z,1.50
2019-06-15T13:33:01.229Z,1.67
2019-06-15T13:35:30.015Z,2.80
2019-06-15T13:37:58.855Z,1.67
2019-06-15T13:40:27.766Z,2.25
2019-06-15T13:42:56.585Z,1.70
2019-06-15T13:45:25.562Z,1.92
2019-06-15T13:47:54.451Z,1.77
2019-06-15T13:50:23.797Z,1.82
2019-06-15T13:52:52.673Z,1.80
2019-06-15T13:55:22.082Z,1.80
2019-06-15T13:57:51.242Z,1.67
2019-06-15T14:00:20.381Z,1.95
2019-06-15T14:02:49.752Z,1.80
2019-06-15T14:05:18.786Z,1.67
2019-06-15T14:07:47.789Z,1.75
2019-06-15T14:10:16.706Z,2.00
2019-06-15T14:12:45.488Z,1.82
2019-06-15T14:15:15.411Z,1.95
2019-06-15T14:17:44.237Z,2.22
2019-06-15T14:20:13.489Z,2.05
2019-06-15T14:22:42.525Z,2.17
2019-06-15T14:25:11.601Z,1.95
2019-06-15T14:27:40.435Z,1.95
2019-06-15T14:30:11.139Z,2.20
2019-06-15T14:32:40.209Z,2.25
2019-06-15T14:35:09.338Z,2.20
2019-06-15T14:37:38.180Z,2.27
2019-06-15T14:40:07.988Z,2.20
2019-06-15T14:42:36.765Z,2.12
2019-06-15T14:45:06.450Z,2.40
2019-06-15T14:47:35.346Z,2.22
2019-06-15T14:50:04.759Z,1.92
2019-06-15T14:52:33.602Z,2.22
2019-06-15T14:55:02.554Z,2.10
2019-06-15T14:57:31.406Z,2.70
2019-06-15T15:00:04.992Z,2.10
2019-06-15T15:02:30.693Z,2.02
2019-06-15T15:04:59.852Z,2.30
2019-06-15T15:07:28.708Z,2.50
2019-06-15T15:09:57.498Z,2.17
2019-06-15T15:12:26.798Z,2.20
2019-06-15T15:14:56.735Z,2.72
2019-06-15T15:17:26.867Z,2.33
2019-06-15T15:19:57.318Z,2.37
2019-06-15T15:22:27.068Z,2.12
2019-06-15T15:24:56.315Z,2.12
2019-06-15T15:27:27.144Z,2.58
2019-06-15T15:29:57.182Z,2.50
2019-06-15T15:32:31.217Z,2.70
2019-06-15T15:34:56.584Z,2.20
2019-06-15T15:37:26.865Z,2.25
2019-06-15T15:39:56.568Z,2.40
2019-06-15T15:42:28.457Z,2.35
2019-06-15T15:44:57.249Z,2.47
2019-06-15T15:47:27.387Z,2.37
2019-06-15T15:49:57.660Z,2.12
2019-06-15T15:52:27.175Z,2.70
2019-06-15T15:54:56.628Z,2.52
2019-06-15T15:57:26.649Z,2.30
2019-06-15T15:59:56.327Z,2.42
2019-06-15T16:02:35.496Z,2.45
2019-06-15T16:04:57.587Z,2.35
2019-06-15T16:07:27.903Z,2.60
2019-06-15T16:09:56.798Z,2.60
2019-06-15T16:12:25.601Z,2.02
2019-06-15T16:14:56.375Z,2.08
2019-06-15T16:17:26.884Z,2.37
2019-06-15T16:19:56.473Z,2.77
2019-06-15T16:22:26.372Z,2.47
2019-06-15T16:24:56.433Z,2.40
2019-06-15T16:27:26.527Z,3.00
2019-06-15T16:29:56.951Z,2.17
2019-06-15T16:32:26.353Z,2.62
2019-06-15T16:34:55.372Z,2.70
2019-06-15T16:37:25.995Z,2.60
2019-06-15T16:39:54.969Z,2.60
2019-06-15T16:42:23.834Z,2.90
2019-06-15T16:44:52.713Z,2.40
2019-06-15T16:47:21.514Z,2.20
2019-06-15T16:49:50.308Z,2.65
2019-06-15T16:52:19.254Z,2.40
2019-06-15T16:54:48.319Z,2.50
2019-06-15T16:57:17.139Z,2.42
2019-06-15T16:59:46.803Z,2.65
2019-06-15T17:02:17.246Z,2.75
2019-06-15T17:04:46.830Z,2.33
2019-06-15T17:07:17.452Z,2.67
2019-06-15T17:09:46.601Z,2.60
2019-06-15T17:12:16.926Z,3.12
2019-06-15T17:14:45.930Z,2.40
2019-06-15T17:17:17.102Z,2.10
2019-06-15T17:19:46.775Z,2.22
2019-06-15T17:22:21.026Z,3.30
2019-06-15T17:24:46.336Z,2.80
2019-06-15T17:27:17.079Z,2.47
2019-06-15T17:29:46.916Z,2.65
2019-06-15T17:32:17.057Z,2.85
2019-06-15T17:34:46.943Z,3.02
2019-06-15T17:37:17.280Z,2.40
2019-06-15T17:39:46.800Z,2.50
2019-06-15T17:42:16.414Z,3.12
2019-06-15T17:44:46.166Z,2.77
2019-06-15T17:47:16.964Z,2.40
2019-06-15T17:49:46.901Z,2.90
2019-06-15T17:52:16.897Z,2.85
2019-06-15T17:54:46.686Z,3.12
2019-06-15T17:57:15.752Z,3.42
2019-06-15T17:59:46.865Z,2.80
2019-06-15T18:02:17.159Z,3.12
2019-06-15T18:04:47.560Z,2.95
2019-06-15T18:07:16.886Z,3.17
2019-06-15T18:09:46.649Z,3.10
2019-06-15T18:12:16.287Z,3.00
2019-06-15T18:14:46.384Z,3.30
2019-06-15T18:17:17.211Z,3.33
2019-06-15T18:19:46.983Z,2.98
2019-06-15T18:22:16.974Z,3.02
2019-06-15T18:24:46.624Z,3.75
2019-06-15T18:27:16.927Z,3.55
2019-06-15T18:29:46.524Z,3.70
2019-06-15T18:32:17.113Z,3.50
2019-06-15T18:34:46.580Z,3.70
2019-06-15T18:37:17.324Z,3.47
2019-06-15T18:39:46.971Z,3.47
2019-06-15T18:42:16.356Z,3.22
2019-06-15T18:44:47.682Z,3.20
2019-06-15T18:47:16.472Z,3.80
2019-06-15T18:49:47.374Z,3.50
2019-06-15T18:52:23.737Z,4.12
2019-06-15T18:54:55.935Z,3.52
2019-06-15T18:57:26.911Z,3.55
2019-06-15T18:59:56.326Z,3.65
2019-06-15T19:02:26.714Z,3.60
2019-06-15T19:04:56.633Z,3.95
2019-06-15T19:07:26.948Z,4.20
2019-06-15T19:09:56.101Z,3.62
2019-06-15T19:12:26.366Z,4.50
2019-06-15T19:14:56.186Z,3.90
2019-06-15T19:17:25.164Z,4.50
2019-06-15T19:19:54.043Z,3.77
2019-06-15T19:22:22.825Z,3.85
2019-06-15T19:24:52.397Z,4.22
2019-06-15T19:27:21.149Z,4.17
2019-06-15T19:29:49.950Z,4.42
2019-06-15T19:32:18.838Z,5.12
2019-06-15T19:34:51.134Z,4.20
2019-06-15T19:37:18.669Z,4.35
2019-06-15T19:39:47.466Z,4.87
2019-06-15T19:42:16.302Z,4.60
2019-06-15T19:44:45.082Z,4.20
2019-06-15T19:47:16.190Z,4.53
2019-06-15T19:49:46.577Z,4.67
2019-06-15T19:52:16.887Z,4.62
2019-06-15T19:54:45.826Z,4.42
2019-06-15T19:57:16.955Z,4.70
2019-06-15T19:59:47.369Z,4.37
2019-06-15T20:02:16.777Z,4.50
2019-06-15T20:04:59.211Z,4.10
2019-06-15T20:07:17.068Z,4.42
2019-06-15T20:09:46.357Z,4.37
2019-06-15T20:12:21.052Z,4.85
2019-06-15T20:14:46.428Z,5.03
2019-06-15T20:17:17.494Z,4.50
2019-06-15T20:19:46.520Z,4.87
2019-06-15T20:22:17.630Z,4.97
2019-06-15T20:24:47.421Z,5.10
2019-06-15T20:27:16.666Z,4.90
2019-06-15T20:29:47.533Z,4.47
2019-06-15T20:32:17.313Z,5.80
2019-06-15T20:34:46.438Z,5.30
2019-06-15T20:37:16.880Z,4.85
2019-06-15T20:39:46.868Z,4.70
2019-06-15T20:42:16.413Z,5.15
2019-06-15T20:44:46.225Z,5.05
2019-06-15T20:47:15.174Z,4.65
2019-06-15T20:49:46.276Z,5.17
2019-06-15T20:52:16.604Z,5.12
2019-06-15T20:54:46.393Z,4.72
2019-06-15T20:57:16.545Z,5.30
2019-06-15T20:59:47.492Z,5.15
2019-06-15T21:02:16.159Z,5.22
2019-06-15T21:04:44.994Z,4.33
2019-06-15T21:07:16.179Z,5.55
2019-06-15T21:09:46.623Z,4.75
2019-06-15T21:12:16.055Z,4.92
2019-06-15T21:14:47.036Z,5.40
2019-06-15T21:17:15.550Z,5.58
2019-06-15T21:19:46.434Z,5.42
2019-06-15T21:22:16.834Z,5.40
2019-06-15T21:24:46.389Z,6.22
2019-06-15T21:27:16.642Z,5.90
2019-06-15T21:29:45.528Z,5.50
2019-06-15T21:32:14.384Z,7.60
2019-06-15T21:34:43.362Z,10.20
2019-06-15T21:37:12.215Z,8.25
2019-06-15T21:39:41.341Z,7.97
2019-06-15T21:42:10.254Z,11.38
2019-06-15T21:44:39.396Z,9.00
2019-06-15T21:47:08.174Z,11.45
2019-06-15T21:49:37.018Z,8.88
2019-06-15T21:52:07.144Z,9.43
2019-06-15T21:54:36.236Z,6.70
2019-06-15T21:57:06.998Z,6.72
2019-06-15T21:59:37.001Z,6.53
2019-06-15T22:02:06.965Z,6.62
2019-06-15T22:04:36.844Z,7.22
2019-06-15T22:07:06.506Z,6.95
2019-06-15T22:09:36.385Z,6.87
2019-06-15T22:12:06.943Z,6.75
2019-06-15T22:14:35.870Z,7.97
2019-06-15T22:17:06.831Z,7.72
2019-06-15T22:19:36.906Z,8.90
2019-06-15T22:22:07.454Z,9.78
2019-06-15T22:24:36.558Z,9.33
2019-06-15T22:27:06.593Z,9.25
2019-06-15T22:29:36.449Z,10.65
2019-06-15T22:32:06.869Z,10.25
2019-06-15T22:34:36.396Z,14.13
2019-06-15T22:37:06.897Z,15.50
2019-06-15T22:39:37.039Z,15.13
2019-06-15T22:42:06.865Z,14.98
2019-06-15T22:44:37.205Z,18.05
2019-06-15T22:47:06.895Z,13.32
2019-06-15T22:49:36.072Z,11.50
2019-06-15T22:52:06.589Z,12.18
2019-06-15T22:54:37.599Z,12.25
2019-06-15T22:57:06.322Z,12.98
2019-06-15T22:59:35.305Z,13.45
2019-06-15T23:02:06.974Z,13.55
2019-06-15T23:04:37.190Z,15.28
2019-06-15T23:07:06.913Z,14.10
2019-06-15T23:09:36.137Z,15.05
2019-06-15T23:12:07.164Z,14.43
2019-06-15T23:14:37.299Z,13.43
2019-06-15T23:17:07.359Z,13.75
2019-06-15T23:19:36.289Z,13.22
2019-06-15T23:22:07.643Z,12.45
2019-06-15T23:24:36.371Z,12.90
2019-06-15T23:27:06.736Z,11.85
2019-06-15T23:29:36.815Z,13.72
2019-06-15T23:32:06.294Z,13.58
2019-06-15T23:34:35.255Z,15.23
2019-06-15T23:37:06.712Z,15.28
2019-06-15T23:39:36.115Z,14.93
2019-06-15T23:42:06.135Z,14.58
2019-06-15T23:44:36.073Z,14.13
2019-06-15T23:47:05.498Z,17.45
2019-06-15T23:49:36.516Z,14.60
2019-06-15T23:52:06.819Z,13.40
2019-06-15T23:54:37.021Z,12.28
2019-06-15T23:57:06.430Z,13.72
2019-06-15T23:59:37.255Z,13.88
